createdAt,value
2023-03-11T00:00:23.836Z,2.80
2023-03-11T00:02:51.664Z,2.80
2023-03-11T00:05:24.756Z,2.70
2023-03-11T00:07:51.714Z,2.70
2023-03-11T00:10:30.375Z,2.70
2023-03-11T00:12:58.216Z,2.60
2023-03-11T00:15:28.222Z,2.60
2023-03-11T00:17:55.076Z,2.60
2023-03-11T00:20:29.752Z,2.60
2023-03-11T00:22:57.092Z,2.50
2023-03-11T00:25:25.282Z,2.40
2023-03-11T00:27:52.238Z,2.30
2023-03-11T00:30:20.485Z,2.30
2023-03-11T00:32:48.486Z,2.20
2023-03-11T00:35:17.495Z,2.10
2023-03-11T00:37:44.922Z,2.10
2023-03-11T00:40:13.430Z,2.10
2023-03-11T00:42:40.278Z,2.10
2023-03-11T00:45:07.726Z,2.10
2023-03-11T00:47:34.728Z,2.10
2023-03-11T00:50:01.570Z,2.10
2023-03-11T00:52:29.087Z,2.00
2023-03-11T00:54:56.128Z,1.90
2023-03-11T00:57:23.101Z,1.80
2023-03-11T00:59:50.033Z,1.80
2023-03-11T01:02:16.882Z,1.70
2023-03-11T01:04:43.761Z,1.70
2023-03-11T01:07:11.462Z,1.60
2023-03-11T01:09:38.360Z,1.60
2023-03-11T01:12:05.528Z,1.50
2023-03-11T01:14:32.405Z,1.50
2023-03-11T01:16:59.218Z,1.50
2023-03-11T01:19:26.070Z,1.40
2023-03-11T01:21:54.257Z,1.40
2023-03-11T01:24:21.183Z,1.40
2023-03-11T01:26:48.056Z,1.40
2023-03-11T01:29:14.895Z,1.30
2023-03-11T01:31:41.729Z,1.30
2023-03-11T01:34:08.694Z,1.30
2023-03-11T01:36:35.603Z,1.20
2023-03-11T01:39:02.518Z,1.20
2023-03-11T01:41:29.356Z,1.20
2023-03-11T01:43:56.436Z,1.10
2023-03-11T01:46:52.379Z,1.10
2023-03-11T01:49:22.457Z,1.10
2023-03-11T01:52:00.648Z,1.10
2023-03-11T01:54:28.951Z,1.10
2023-03-11T01:56:56.698Z,1.10
2023-03-11T01:59:25.538Z,1.00
2023-03-11T02:02:01.631Z,1.00
2023-03-11T02:04:28.929Z,1.00
2023-03-11T02:06:56.660Z,0.90
2023-03-11T02:09:24.241Z,0.90
2023-03-11T02:11:51.371Z,0.90
2023-03-11T02:14:18.287Z,0.90
2023-03-11T02:16:45.557Z,0.90
2023-03-11T02:19:34.592Z,0.90
2023-03-11T02:22:01.697Z,0.90
2023-03-11T02:24:45.798Z,0.80
2023-03-11T02:27:13.886Z,0.80
2023-03-11T02:29:40.808Z,0.80
2023-03-11T02:32:09.099Z,0.80
2023-03-11T02:34:40.338Z,0.80
2023-03-11T02:37:08.800Z,0.80
2023-03-11T02:39:40.368Z,0.70
2023-03-11T02:42:18.315Z,0.70
2023-03-11T02:44:46.977Z,0.70
2023-03-11T02:47:13.791Z,0.60
2023-03-11T02:49:40.793Z,0.60
2023-03-11T02:52:07.827Z,0.70
2023-03-11T02:54:34.759Z,0.60
2023-03-11T02:57:01.728Z,0.60
2023-03-11T02:59:28.924Z,0.60
2023-03-11T03:01:56.429Z,0.60
2023-03-11T03:04:23.431Z,0.60
2023-03-11T03:06:50.396Z,0.60
2023-03-11T03:09:17.899Z,0.50
2023-03-11T03:11:44.889Z,0.50
2023-03-11T03:14:11.885Z,0.50
2023-03-11T03:16:38.885Z,0.40
2023-03-11T03:19:05.879Z,0.50
2023-03-11T03:21:32.837Z,0.40
2023-03-11T03:23:59.664Z,0.40
2023-03-11T03:26:26.562Z,0.30
2023-03-11T03:28:53.453Z,0.40
2023-03-11T03:31:20.943Z,0.40
2023-03-11T03:33:47.989Z,0.40
2023-03-11T03:36:15.599Z,0.30
2023-03-11T03:38:46.357Z,0.30
2023-03-11T03:41:16.303Z,0.30
2023-03-11T03:43:43.967Z,0.30
2023-03-11T03:46:10.911Z,0.30
2023-03-11T03:48:42.154Z,0.20
2023-03-11T03:51:11.616Z,0.20
2023-03-11T03:53:43.178Z,0.20
2023-03-11T03:56:12.368Z,0.20
2023-03-11T03:58:39.681Z,0.20
2023-03-11T04:01:07.305Z,0.20
2023-03-11T04:03:35.291Z,0.20
2023-03-11T04:06:11.333Z,0.10
2023-03-11T04:08:38.734Z,0.10
2023-03-11T04:11:05.562Z,0.10
2023-03-11T04:13:35.460Z,0.10
2023-03-11T04:16:05.881Z,0.10
2023-03-11T04:18:33.524Z,0.10
2023-03-11T04:21:00.596Z,0.10
2023-03-11T04:23:27.904Z,0.10
2023-03-11T04:25:54.866Z,0.00
2023-03-11T04:28:21.839Z,0.10
2023-03-11T04:30:48.796Z,0.10
2023-03-11T04:33:15.725Z,0.10
2023-03-11T04:35:42.652Z,0.10
2023-03-11T04:38:09.589Z,0.20
2023-03-11T04:40:39.674Z,0.30
2023-03-11T04:43:06.654Z,0.40
2023-03-11T04:45:33.534Z,0.40
2023-03-11T04:48:02.749Z,0.50
2023-03-11T04:50:31.068Z,0.60
2023-03-11T04:52:57.897Z,0.70
2023-03-11T04:55:25.007Z,0.80
2023-03-11T04:57:51.987Z,0.80
2023-03-11T05:00:24.455Z,0.90
2023-03-11T05:02:58.114Z,1.00
2023-03-11T05:05:25.597Z,1.00
2023-03-11T05:07:52.488Z,1.10
2023-03-11T05:10:22.580Z,1.10
2023-03-11T05:12:53.031Z,1.20
2023-03-11T05:15:21.689Z,1.20
2023-03-11T05:17:48.593Z,1.20
2023-03-11T05:20:16.617Z,1.30
2023-03-11T05:22:43.560Z,1.30
2023-03-11T05:25:10.797Z,1.30
2023-03-11T05:27:38.295Z,1.30
2023-03-11T05:30:07.145Z,1.30
2023-03-11T05:32:35.996Z,1.40
2023-03-11T05:35:05.688Z,1.40
2023-03-11T05:37:32.820Z,1.40
2023-03-11T05:40:02.209Z,1.40
2023-03-11T05:42:29.891Z,1.40
2023-03-11T05:44:57.849Z,1.40
2023-03-11T05:47:25.664Z,1.50
2023-03-11T05:49:52.878Z,1.50
2023-03-11T05:52:20.542Z,1.50
2023-03-11T05:54:51.693Z,1.50
2023-03-11T05:57:22.051Z,1.50
2023-03-11T05:59:48.895Z,1.50
2023-03-11T06:02:15.902Z,1.50
2023-03-11T06:04:43.770Z,1.50
2023-03-11T06:07:12.261Z,1.60
2023-03-11T06:09:39.769Z,1.50
2023-03-11T06:12:11.190Z,1.50
2023-03-11T06:15:10.574Z,1.50
2023-03-11T06:17:39.037Z,1.60
2023-03-11T06:20:07.932Z,1.60
2023-03-11T06:22:34.884Z,1.60
2023-03-11T06:25:02.179Z,1.60
2023-03-11T06:27:31.712Z,1.60
2023-03-11T06:29:58.801Z,1.60
2023-03-11T06:32:27.273Z,1.70
2023-03-11T06:34:54.157Z,1.80
2023-03-11T06:37:23.683Z,1.90
2023-03-11T06:39:53.613Z,2.00
2023-03-11T06:42:25.819Z,2.00
2023-03-11T06:44:56.073Z,2.10
2023-03-11T06:47:23.622Z,2.10
2023-03-11T06:49:51.315Z,2.20
2023-03-11T06:52:18.496Z,2.20
2023-03-11T06:54:45.720Z,2.20
2023-03-11T06:57:14.739Z,2.20
2023-03-11T06:59:41.580Z,2.20
2023-03-11T07:02:12.519Z,2.20
2023-03-11T07:04:41.185Z,2.20
2023-03-11T07:07:07.979Z,2.30
2023-03-11T07:09:34.850Z,2.40
2023-03-11T07:12:04.802Z,2.50
2023-03-11T07:14:35.603Z,2.50
2023-03-11T07:17:02.758Z,2.60
2023-03-11T07:19:35.725Z,2.70
2023-03-11T07:22:02.688Z,2.70
2023-03-11T07:24:29.510Z,2.80
2023-03-11T07:26:56.388Z,2.90
2023-03-11T07:29:23.244Z,3.00
2023-03-11T07:31:50.133Z,3.20
2023-03-11T07:34:16.999Z,3.50
2023-03-11T07:36:43.893Z,3.80
2023-03-11T07:39:14.881Z,4.00
2023-03-11T07:41:41.880Z,4.40
2023-03-11T07:44:10.648Z,4.50
2023-03-11T07:46:37.508Z,4.70
2023-03-11T07:49:04.498Z,4.70
2023-03-11T07:51:32.790Z,4.80
2023-03-11T07:54:00.116Z,4.80
2023-03-11T07:56:29.138Z,4.80
2023-03-11T07:58:56.112Z,4.70
2023-03-11T08:01:24.291Z,4.80
2023-03-11T08:03:53.001Z,5.00
2023-03-11T08:06:27.956Z,5.20
2023-03-11T08:08:54.969Z,5.40
2023-03-11T08:11:22.437Z,5.50
2023-03-11T08:13:49.879Z,5.60
2023-03-11T08:16:19.069Z,5.60
2023-03-11T08:18:49.270Z,5.60
2023-03-11T08:21:19.643Z,5.60
2023-03-11T08:23:46.435Z,5.60
2023-03-11T08:26:18.099Z,5.70
2023-03-11T08:28:44.893Z,5.70
2023-03-11T08:31:15.405Z,5.70
2023-03-11T08:33:43.059Z,5.80
2023-03-11T08:36:10.257Z,5.80
2023-03-11T08:38:37.411Z,5.90
2023-03-11T08:41:05.043Z,5.90
2023-03-11T08:43:31.822Z,5.90
2023-03-11T08:46:00.851Z,5.90
2023-03-11T08:48:27.997Z,5.90
2023-03-11T08:50:54.941Z,6.00
2023-03-11T08:53:25.223Z,6.10
2023-03-11T08:55:52.656Z,6.20
2023-03-11T08:58:19.993Z,6.30
2023-03-11T09:00:46.958Z,6.50
2023-03-11T09:03:13.784Z,6.60
2023-03-11T09:05:40.711Z,6.70
2023-03-11T09:08:07.614Z,6.80
2023-03-11T09:10:34.432Z,6.80
2023-03-11T09:13:01.296Z,6.90
2023-03-11T09:15:28.168Z,6.90
2023-03-11T09:17:55.843Z,7.10
2023-03-11T09:20:22.811Z,7.20
2023-03-11T09:22:49.732Z,7.40
2023-03-11T09:25:16.616Z,7.50
2023-03-11T09:27:43.656Z,7.60
2023-03-11T09:30:11.147Z,7.70
2023-03-11T09:32:38.007Z,7.80
2023-03-11T09:35:05.277Z,8.00
2023-03-11T09:37:32.159Z,8.10
2023-03-11T09:39:58.938Z,8.30
2023-03-11T09:42:35.048Z,8.40
2023-03-11T09:45:18.026Z,8.50
2023-03-11T09:47:51.163Z,8.50
2023-03-11T09:50:26.492Z,8.60
2023-03-11T09:53:02.970Z,8.70
2023-03-11T09:55:47.645Z,8.80
2023-03-11T09:58:19.159Z,8.90
2023-03-11T10:00:46.042Z,9.00
2023-03-11T10:03:21.623Z,9.10
2023-03-11T10:05:48.526Z,9.20
2023-03-11T10:08:33.107Z,9.30
2023-03-11T10:11:06.900Z,9.40
2023-03-11T10:13:50.309Z,9.40
2023-03-11T10:16:49.599Z,9.50
2023-03-11T10:19:41.190Z,9.80
2023-03-11T10:22:29.865Z,9.90
2023-03-11T10:25:10.365Z,10.10
2023-03-11T10:27:51.593Z,10.30
2023-03-11T10:30:43.756Z,10.30
2023-03-11T10:33:31.206Z,10.30
2023-03-11T10:36:00.758Z,10.40
2023-03-11T10:38:30.591Z,10.40
2023-03-11T10:41:00.146Z,10.30
2023-03-11T10:43:41.993Z,10.20
2023-03-11T10:46:28.046Z,10.30
2023-03-11T10:48:55.085Z,10.30
2023-03-11T10:51:33.552Z,10.50
2023-03-11T10:54:01.096Z,10.70
2023-03-11T10:56:39.019Z,10.90
2023-03-11T10:59:30.196Z,11.00
2023-03-11T11:02:20.270Z,11.10
2023-03-11T11:04:47.156Z,11.40
2023-03-11T11:07:28.603Z,11.60
2023-03-11T11:10:15.988Z,11.70
2023-03-11T11:13:22.517Z,11.90
2023-03-11T11:15:59.250Z,12.00
2023-03-11T11:18:43.090Z,11.90
2023-03-11T11:21:14.749Z,11.70
2023-03-11T11:23:42.650Z,11.50
2023-03-11T11:26:15.485Z,11.50
2023-03-11T11:28:42.367Z,11.60
2023-03-11T11:31:25.734Z,11.80
2023-03-11T11:33:53.891Z,12.00
2023-03-11T11:36:24.254Z,12.20
2023-03-11T11:38:54.681Z,12.40
2023-03-11T11:41:23.573Z,12.60
2023-03-11T11:43:53.538Z,12.60
2023-03-11T11:46:37.489Z,12.70
2023-03-11T11:49:23.696Z,12.80
2023-03-11T11:52:13.848Z,12.80
2023-03-11T11:54:48.023Z,12.90
2023-03-11T11:57:16.119Z,13.30
2023-03-11T11:59:43.514Z,13.70
2023-03-11T12:02:18.247Z,14.00
2023-03-11T12:05:00.614Z,14.40
2023-03-11T12:08:04.257Z,14.90
2023-03-11T12:10:39.480Z,15.40
2023-03-11T12:13:46.168Z,15.90
2023-03-11T12:16:23.494Z,16.30
2023-03-11T12:18:52.185Z,16.60
2023-03-11T12:21:30.007Z,16.80
2023-03-11T12:24:00.025Z,17.00
2023-03-11T12:26:27.304Z,17.10
2023-03-11T12:29:19.900Z,17.30
2023-03-11T12:31:46.911Z,17.30
2023-03-11T12:34:15.133Z,17.30
2023-03-11T12:36:43.891Z,17.10
2023-03-11T12:39:25.102Z,16.80
2023-03-11T12:42:10.857Z,16.40
2023-03-11T12:44:38.333Z,16.20
2023-03-11T12:47:08.152Z,16.40
2023-03-11T12:49:43.302Z,16.40
2023-03-11T12:52:15.633Z,16.40
2023-03-11T12:54:46.747Z,16.60
2023-03-11T12:57:16.874Z,16.90
2023-03-11T13:00:22.963Z,17.10
2023-03-11T13:03:35.105Z,17.40
2023-03-11T13:06:04.993Z,18.10
2023-03-11T13:08:43.990Z,18.80
2023-03-11T13:11:29.582Z,19.00
2023-03-11T13:14:14.976Z,18.70
2023-03-11T13:16:42.183Z,18.40
2023-03-11T13:19:27.857Z,18.10
2023-03-11T13:21:55.664Z,17.70
2023-03-11T13:24:22.558Z,17.10
2023-03-11T13:26:59.733Z,16.60
2023-03-11T13:29:54.475Z,16.20
2023-03-11T13:32:39.830Z,15.70
2023-03-11T13:35:20.795Z,15.20
2023-03-11T13:38:06.379Z,14.80
2023-03-11T13:40:40.383Z,14.40
2023-03-11T13:43:21.623Z,14.00
2023-03-11T13:45:51.550Z,13.60
2023-03-11T13:48:37.651Z,13.20
2023-03-11T13:51:08.341Z,13.00
2023-03-11T13:54:00.136Z,12.80
2023-03-11T13:56:28.606Z,12.70
2023-03-11T13:58:55.420Z,12.50
2023-03-11T14:01:22.365Z,12.40
2023-03-11T14:03:50.552Z,12.50
2023-03-11T14:06:19.729Z,12.90
2023-03-11T14:08:57.043Z,13.40
2023-03-11T14:11:29.149Z,13.80
2023-03-11T14:13:56.488Z,14.20
2023-03-11T14:16:43.714Z,14.50
2023-03-11T14:19:17.577Z,14.70
2023-03-11T14:21:45.219Z,14.50
2023-03-11T14:24:23.279Z,14.40
2023-03-11T14:26:51.050Z,14.40
2023-03-11T14:29:19.219Z,14.70
2023-03-11T14:31:46.712Z,14.80
2023-03-11T14:34:20.896Z,14.80
2023-03-11T14:36:54.412Z,14.80
2023-03-11T14:39:22.217Z,14.70
2023-03-11T14:41:49.469Z,14.50
2023-03-11T14:44:16.334Z,14.70
2023-03-11T14:46:45.210Z,15.60
2023-03-11T14:49:17.311Z,16.30
2023-03-11T14:51:44.118Z,16.40
2023-03-11T14:54:18.015Z,16.00
2023-03-11T14:56:49.779Z,15.50
2023-03-11T14:59:23.342Z,15.20
2023-03-11T15:01:50.760Z,15.00
2023-03-11T15:04:28.649Z,15.00
2023-03-11T15:06:55.463Z,15.20
2023-03-11T15:09:23.185Z,16.00
2023-03-11T15:11:55.491Z,16.30
2023-03-11T15:14:26.458Z,16.20
2023-03-11T15:16:53.879Z,15.90
2023-03-11T15:19:27.412Z,15.20
2023-03-11T15:21:55.279Z,14.40
2023-03-11T15:24:29.140Z,13.70
2023-03-11T15:27:03.315Z,13.10
2023-03-11T15:29:30.436Z,12.70
2023-03-11T15:31:57.356Z,12.20
2023-03-11T15:34:26.553Z,11.80
2023-03-11T15:36:55.416Z,11.50
2023-03-11T15:39:31.055Z,11.30
2023-03-11T15:42:08.115Z,11.20
2023-03-11T15:44:43.555Z,11.20
2023-03-11T15:47:23.029Z,11.20
2023-03-11T15:49:49.870Z,11.30
2023-03-11T15:52:17.461Z,11.30
2023-03-11T15:54:54.735Z,11.20
2023-03-11T15:57:27.437Z,11.20
2023-03-11T15:59:55.090Z,11.10
2023-03-11T16:02:27.849Z,11.10
2023-03-11T16:04:55.025Z,11.10
2023-03-11T16:07:38.110Z,11.10
2023-03-11T16:10:06.635Z,11.00
2023-03-11T16:12:33.437Z,11.00
2023-03-11T16:15:00.438Z,10.90
2023-03-11T16:17:31.867Z,10.80
2023-03-11T16:20:03.751Z,10.70
2023-03-11T16:22:37.209Z,10.60
2023-03-11T16:25:04.428Z,10.50
2023-03-11T16:27:31.231Z,10.40
2023-03-11T16:29:58.016Z,10.30
2023-03-11T16:32:24.857Z,10.10
2023-03-11T16:34:51.770Z,9.90
2023-03-11T16:37:21.473Z,9.80
2023-03-11T16:39:48.590Z,9.70
2023-03-11T16:42:22.052Z,9.60
2023-03-11T16:44:48.876Z,9.40
2023-03-11T16:47:15.909Z,9.30
2023-03-11T16:49:42.708Z,9.20
2023-03-11T16:52:09.561Z,9.10
2023-03-11T16:54:36.410Z,9.00
2023-03-11T16:57:03.287Z,8.90
2023-03-11T16:59:30.253Z,8.80
2023-03-11T17:01:57.186Z,8.70
2023-03-11T17:04:24.036Z,8.60
2023-03-11T17:06:50.850Z,8.60
2023-03-11T17:09:17.609Z,8.40
2023-03-11T17:11:44.529Z,8.40
2023-03-11T17:14:16.576Z,8.40
2023-03-11T17:16:45.215Z,8.40
2023-03-11T17:19:12.158Z,8.30
2023-03-11T17:21:39.361Z,8.30
2023-03-11T17:24:07.263Z,8.30
2023-03-11T17:26:34.136Z,8.20
2023-03-11T17:29:01.007Z,8.10
2023-03-11T17:31:29.778Z,8.00
2023-03-11T17:33:59.158Z,7.90
2023-03-11T17:36:26.134Z,7.80
2023-03-11T17:38:53.648Z,7.80
2023-03-11T17:41:20.838Z,7.70
2023-03-11T17:43:49.207Z,7.70
2023-03-11T17:46:18.608Z,7.70
2023-03-11T17:48:46.750Z,7.70
2023-03-11T17:51:18.759Z,7.60
2023-03-11T17:53:46.157Z,7.50
2023-03-11T17:56:13.946Z,7.40
2023-03-11T17:58:40.791Z,7.30
2023-03-11T18:01:11.165Z,7.30
2023-03-11T18:03:38.045Z,7.20
2023-03-11T18:06:05.660Z,7.10
2023-03-11T18:08:33.009Z,7.10
2023-03-11T18:11:02.030Z,7.00
2023-03-11T18:13:28.942Z,7.00
2023-03-11T18:16:03.955Z,7.00
2023-03-11T18:18:31.252Z,7.00
2023-03-11T18:21:04.516Z,6.90
2023-03-11T18:23:33.183Z,6.90
2023-03-11T18:26:00.897Z,7.00
2023-03-11T18:28:27.776Z,7.20
2023-03-11T18:30:54.578Z,7.40
2023-03-11T18:33:22.639Z,7.50
2023-03-11T18:35:49.568Z,7.60
2023-03-11T18:38:16.446Z,7.60
2023-03-11T18:40:43.410Z,7.60
2023-03-11T18:43:12.568Z,7.50
2023-03-11T18:45:39.628Z,7.40
2023-03-11T18:48:06.535Z,7.30
2023-03-11T18:50:33.441Z,7.20
2023-03-11T18:53:00.307Z,7.20
2023-03-11T18:55:27.176Z,7.10
2023-03-11T18:57:54.040Z,7.10
2023-03-11T19:00:23.607Z,7.10
2023-03-11T19:02:52.064Z,7.00
2023-03-11T19:05:19.258Z,7.00
2023-03-11T19:07:46.121Z,7.00
2023-03-11T19:10:14.949Z,7.10
2023-03-11T19:12:43.750Z,7.10
2023-03-11T19:15:11.863Z,7.10
2023-03-11T19:17:38.698Z,7.10
2023-03-11T19:20:08.722Z,7.10
2023-03-11T19:22:36.179Z,7.00
2023-03-11T19:25:04.457Z,7.10
2023-03-11T19:27:31.573Z,7.10
2023-03-11T19:29:58.374Z,7.10
2023-03-11T19:32:25.249Z,7.20
2023-03-11T19:34:52.145Z,7.20
2023-03-11T19:37:18.955Z,7.20
2023-03-11T19:39:45.733Z,7.20
2023-03-11T19:42:12.571Z,7.20
2023-03-11T19:44:39.396Z,7.20
2023-03-11T19:47:06.451Z,7.20
2023-03-11T19:49:33.360Z,7.30
2023-03-11T19:52:00.178Z,7.30
2023-03-11T19:54:27.003Z,7.30
2023-03-11T19:56:53.830Z,7.30
2023-03-11T19:59:21.015Z,7.20
2023-03-11T20:01:48.159Z,7.20
2023-03-11T20:04:15.490Z,7.20
2023-03-11T20:06:43.146Z,7.30
2023-03-11T20:09:11.347Z,7.30
2023-03-11T20:11:40.109Z,7.30
2023-03-11T20:14:07.432Z,7.30
2023-03-11T20:16:34.369Z,7.20
2023-03-11T20:19:01.464Z,7.20
2023-03-11T20:21:28.347Z,7.10
2023-03-11T20:23:55.591Z,7.00
2023-03-11T20:26:22.734Z,7.00
2023-03-11T20:28:49.723Z,7.00
2023-03-11T20:31:21.136Z,7.10
2023-03-11T20:33:49.925Z,7.10
2023-03-11T20:36:21.285Z,7.10
2023-03-11T20:38:52.814Z,7.10
2023-03-11T20:41:20.554Z,7.10
2023-03-11T20:43:49.097Z,7.20
2023-03-11T20:46:16.241Z,7.30
2023-03-11T20:48:46.555Z,7.50
2023-03-11T20:51:16.067Z,7.60
2023-03-11T20:53:43.723Z,7.60
2023-03-11T20:56:13.713Z,7.70
2023-03-11T20:58:42.284Z,7.70
2023-03-11T21:01:20.964Z,7.70
2023-03-11T21:03:48.999Z,7.60
2023-03-11T21:06:17.325Z,7.60
2023-03-11T21:08:44.916Z,7.50
2023-03-11T21:11:12.902Z,7.40
2023-03-11T21:13:41.010Z,7.40
2023-03-11T21:16:08.851Z,7.30
2023-03-11T21:18:36.017Z,7.30
2023-03-11T21:21:04.739Z,7.30
2023-03-11T21:23:32.502Z,7.30
2023-03-11T21:26:03.002Z,7.30
2023-03-11T21:28:30.718Z,7.30
2023-03-11T21:31:03.622Z,7.30
2023-03-11T21:33:31.244Z,7.30
2023-03-11T21:36:00.769Z,7.30
2023-03-11T21:38:27.884Z,7.30
2023-03-11T21:41:03.508Z,7.30
2023-03-11T21:43:30.377Z,7.30
2023-03-11T21:45:57.286Z,7.40
2023-03-11T21:48:24.259Z,7.40
2023-03-11T21:50:52.018Z,7.40
2023-03-11T21:53:18.897Z,7.50
2023-03-11T21:55:47.165Z,7.50
2023-03-11T21:58:14.864Z,7.60
2023-03-11T22:00:41.846Z,7.60
2023-03-11T22:03:08.952Z,7.60
2023-03-11T22:05:35.839Z,7.60
2023-03-11T22:08:03.021Z,7.60
2023-03-11T22:10:31.089Z,7.60
2023-03-11T22:12:58.114Z,7.60
2023-03-11T22:15:24.976Z,7.60
2023-03-11T22:17:51.769Z,7.60
2023-03-11T22:20:18.683Z,7.60
2023-03-11T22:22:45.773Z,7.60
2023-03-11T22:25:12.646Z,7.60
2023-03-11T22:27:40.333Z,7.50
2023-03-11T22:30:07.843Z,7.50
2023-03-11T22:32:34.986Z,7.50
2023-03-11T22:35:02.058Z,7.50
2023-03-11T22:37:28.858Z,7.50
2023-03-11T22:39:55.630Z,7.50
2023-03-11T22:42:22.407Z,7.60
2023-03-11T22:44:49.323Z,7.60
2023-03-11T22:47:16.201Z,7.70
2023-03-11T22:49:42.964Z,7.70
2023-03-11T22:52:09.778Z,7.70
2023-03-11T22:54:37.458Z,7.70
2023-03-11T22:57:04.386Z,7.70
2023-03-11T22:59:31.212Z,7.70
2023-03-11T23:01:58.031Z,7.70
2023-03-11T23:04:24.840Z,7.70
2023-03-11T23:06:54.382Z,7.70
2023-03-11T23:09:24.144Z,7.70
2023-03-11T23:11:51.558Z,7.80
2023-03-11T23:14:20.616Z,8.00
2023-03-11T23:16:50.505Z,8.10
2023-03-11T23:19:17.425Z,8.20
2023-03-11T23:21:44.285Z,8.20
2023-03-11T23:24:11.128Z,8.30
2023-03-11T23:26:38.251Z,8.40
2023-03-11T23:29:05.097Z,8.50
2023-03-11T23:31:32.028Z,8.60
2023-03-11T23:33:58.906Z,8.70
2023-03-11T23:36:30.412Z,8.80
2023-03-11T23:38:58.294Z,8.90
2023-03-11T23:41:25.281Z,9.00
2023-03-11T23:43:52.190Z,9.10
2023-03-11T23:46:19.221Z,9.20
2023-03-11T23:48:46.108Z,9.30
2023-03-11T23:51:12.948Z,9.20
2023-03-11T23:53:39.811Z,9.20
2023-03-11T23:56:14.471Z,9.10
2023-03-11T23:58:41.302Z,9.00
